sensor_id;sensor_type;location;lat;lon;timestamp;pressure;altitude;pressure_sealevel;temperature;humidity
11184;BME280;5648;43.628;22.684;2022-09-09T00:04:18;95260.28;;;20.01;100.00
11184;BME280;5648;43.628;22.684;2022-09-09T00:07:15;95271.81;;;20.02;100.00
11184;BME280;5648;43.628;22.684;2022-09-09T00:12:43;95256.00;;;20.00;100.00
11184;BME280;5648;43.628;22.684;2022-09-09T00:15:35;95263.19;;;19.90;100.00
11184;BME280;5648;43.628;22.684;2022-09-09T00:18:14;95257.81;;;19.95;100.00
11184;BME280;5648;43.628;22.684;2022-09-09T00:20:52;95260.56;;;20.00;100.00
11184;BME280;5648;43.628;22.684;2022-09-09T00:23:28;95255.41;;;19.93;100.00
11184;BME280;5648;43.628;22.684;2022-09-09T00:26:04;95245.53;;;19.99;100.00
11184;BME280;5648;43.628;22.684;2022-09-09T00:28:38;95253.53;;;19.94;100.00
11184;BME280;5648;43.628;22.684;2022-09-09T00:31:12;95252.38;;;19.74;100.00
11184;BME280;5648;43.628;22.684;2022-09-09T00:33:39;95235.81;;;19.88;100.00
11184;BME280;5648;43.628;22.684;2022-09-09T00:36:13;95244.94;;;19.86;100.00
11184;BME280;5648;43.628;22.684;2022-09-09T00:38:45;95249.16;;;19.72;100.00
11184;BME280;5648;43.628;22.684;2022-09-09T00:41:22;95256.16;;;19.83;100.00
11184;BME280;5648;43.628;22.684;2022-09-09T00:44:00;95254.53;;;19.82;100.00
11184;BME280;5648;43.628;22.684;2022-09-09T00:46:59;95248.09;;;19.78;100.00
11184;BME280;5648;43.628;22.684;2022-09-09T00:52:03;95251.78;;;19.67;100.00
11184;BME280;5648;43.628;22.684;2022-09-09T00:57:32;95252.22;;;19.54;100.00
11184;BME280;5648;43.628;22.684;2022-09-09T01:02:52;95243.13;;;19.55;100.00
11184;BME280;5648;43.628;22.684;2022-09-09T01:08:01;95250.72;;;19.68;100.00
11184;BME280;5648;43.628;22.684;2022-09-09T01:10:49;95249.91;;;19.68;100.00
11184;BME280;5648;43.628;22.684;2022-09-09T01:13:30;95248.56;;;19.65;100.00
11184;BME280;5648;43.628;22.684;2022-09-09T01:16:00;95251.25;;;19.70;100.00
11184;BME280;5648;43.628;22.684;2022-09-09T01:18:49;95248.63;;;19.75;100.00
11184;BME280;5648;43.628;22.684;2022-09-09T01:21:50;95251.56;;;19.74;100.00
11184;BME280;5648;43.628;22.684;2022-09-09T01:24:52;95239.44;;;19.66;100.00
11184;BME280;5648;43.628;22.684;2022-09-09T01:27:21;95242.13;;;19.61;100.00
11184;BME280;5648;43.628;22.684;2022-09-09T01:29:48;95242.56;;;19.53;100.00
11184;BME280;5648;43.628;22.684;2022-09-09T01:32:40;95242.91;;;19.56;100.00
11184;BME280;5648;43.628;22.684;2022-09-09T01:35:13;95237.53;;;19.56;100.00
11184;BME280;5648;43.628;22.684;2022-09-09T01:37:40;95237.78;;;19.55;100.00
11184;BME280;5648;43.628;22.684;2022-09-09T01:40:06;95244.97;;;19.49;100.00
11184;BME280;5648;43.628;22.684;2022-09-09T01:42:32;95242.28;;;19.44;100.00
11184;BME280;5648;43.628;22.684;2022-09-09T01:44:58;95242.47;;;19.38;100.00
11184;BME280;5648;43.628;22.684;2022-09-09T01:47:23;95252.63;;;19.31;100.00
11184;BME280;5648;43.628;22.684;2022-09-09T01:49:49;95241.91;;;19.31;100.00
11184;BME280;5648;43.628;22.684;2022-09-09T01:52:14;95249.09;;;19.25;100.00
11184;BME280;5648;43.628;22.684;2022-09-09T01:54:40;95252.28;;;19.17;100.00
11184;BME280;5648;43.628;22.684;2022-09-09T02:03:16;95263.16;;;19.05;100.00
11184;BME280;5648;43.628;22.684;2022-09-09T02:05:57;95257.97;;;18.93;100.00
11184;BME280;5648;43.628;22.684;2022-09-09T02:08:46;95263.63;;;18.97;100.00
11184;BME280;5648;43.628;22.684;2022-09-09T02:11:18;95256.66;;;18.96;100.00
11184;BME280;5648;43.628;22.684;2022-09-09T02:13:47;95258.69;;;18.84;100.00
11184;BME280;5648;43.628;22.684;2022-09-09T02:16:24;95254.13;;;18.79;100.00
11184;BME280;5648;43.628;22.684;2022-09-09T02:18:56;95250.13;;;18.82;100.00
11184;BME280;5648;43.628;22.684;2022-09-09T02:21:23;95244.22;;;18.80;100.00
11184;BME280;5648;43.628;22.684;2022-09-09T02:23:50;95252.03;;;18.86;100.00
11184;BME280;5648;43.628;22.684;2022-09-09T02:26:19;95250.78;;;18.99;100.00
11184;BME280;5648;43.628;22.684;2022-09-09T02:28:50;95246.03;;;19.06;100.00
11184;BME280;5648;43.628;22.684;2022-09-09T02:31:20;95250.19;;;18.87;100.00
11184;BME280;5648;43.628;22.684;2022-09-09T02:33:51;95246.44;;;18.88;100.00
11184;BME280;5648;43.628;22.684;2022-09-09T02:36:20;95240.56;;;18.91;100.00
11184;BME280;5648;43.628;22.684;2022-09-09T02:38:48;95250.56;;;19.01;100.00
11184;BME280;5648;43.628;22.684;2022-09-09T02:41:20;95246.03;;;19.06;100.00
11184;BME280;5648;43.628;22.684;2022-09-09T02:43:48;95246.00;;;19.01;100.00
11184;BME280;5648;43.628;22.684;2022-09-09T02:49:00;95247.28;;;18.98;100.00
11184;BME280;5648;43.628;22.684;2022-09-09T02:51:46;95255.84;;;18.95;100.00
11184;BME280;5648;43.628;22.684;2022-09-09T02:54:33;95256.13;;;18.99;100.00
11184;BME280;5648;43.628;22.684;2022-09-09T02:59:38;95263.34;;;18.93;100.00
11184;BME280;5648;43.628;22.684;2022-09-09T03:02:04;95271.66;;;18.97;100.00
11184;BME280;5648;43.628;22.684;2022-09-09T03:04:30;95263.63;;;18.97;100.00
11184;BME280;5648;43.628;22.684;2022-09-09T03:06:57;95256.56;;;18.86;100.00
11184;BME280;5648;43.628;22.684;2022-09-09T03:09:22;95258.25;;;18.92;100.00
11184;BME280;5648;43.628;22.684;2022-09-09T03:11:49;95260.31;;;18.85;100.00
11184;BME280;5648;43.628;22.684;2022-09-09T03:14:15;95259.81;;;18.88;100.00
11184;BME280;5648;43.628;22.684;2022-09-09T03:16:41;95256.88;;;18.89;100.00
11184;BME280;5648;43.628;22.684;2022-09-09T03:19:08;95249.00;;;18.78;100.00
11184;BME280;5648;43.628;22.684;2022-09-09T03:21:33;95254.16;;;18.84;100.00
11184;BME280;5648;43.628;22.684;2022-09-09T03:24:00;95251.56;;;18.94;100.00
11184;BME280;5648;43.628;22.684;2022-09-09T03:26:25;95259.03;;;18.87;100.00
11184;BME280;5648;43.628;22.684;2022-09-09T03:28:50;95254.50;;;18.93;100.00
11184;BME280;5648;43.628;22.684;2022-09-09T03:31:17;95258.78;;;18.94;100.00
11184;BME280;5648;43.628;22.684;2022-09-09T03:33:44;95258.78;;;18.94;100.00
11184;BME280;5648;43.628;22.684;2022-09-09T03:36:10;95250.50;;;18.95;100.00
11184;BME280;5648;43.628;22.684;2022-09-09T03:38:35;95237.75;;;18.76;100.00
11184;BME280;5648;43.628;22.684;2022-09-09T03:41:01;95232.69;;;18.79;100.00
11184;BME280;5648;43.628;22.684;2022-09-09T03:43:28;95243.75;;;18.88;100.00
11184;BME280;5648;43.628;22.684;2022-09-09T03:45:55;95252.91;;;18.97;100.00
11184;BME280;5648;43.628;22.684;2022-09-09T03:48:24;95247.00;;;18.95;100.00
11184;BME280;5648;43.628;22.684;2022-09-09T03:50:52;95255.59;;;18.97;100.00
11184;BME280;5648;43.628;22.684;2022-09-09T03:53:21;95263.47;;;19.09;100.00
11184;BME280;5648;43.628;22.684;2022-09-09T03:55:49;95268.34;;;18.85;100.00
11184;BME280;5648;43.628;22.684;2022-09-09T03:58:16;95261.94;;;18.86;100.00
11184;BME280;5648;43.628;22.684;2022-09-09T04:00:43;95260.28;;;18.80;100.00
11184;BME280;5648;43.628;22.684;2022-09-09T04:03:11;95262.44;;;18.83;100.00
11184;BME280;5648;43.628;22.684;2022-09-09T04:05:39;95272.47;;;18.65;100.00
11184;BME280;5648;43.628;22.684;2022-09-09T04:08:06;95266.06;;;18.66;100.00
11184;BME280;5648;43.628;22.684;2022-09-09T04:10:32;95258.63;;;18.47;100.00
11184;BME280;5648;43.628;22.684;2022-09-09T04:12:58;95272.84;;;18.52;100.00
11184;BME280;5648;43.628;22.684;2022-09-09T04:15:25;95275.25;;;18.76;100.00
11184;BME280;5648;43.628;22.684;2022-09-09T04:17:50;95278.13;;;18.69;100.00
11184;BME280;5648;43.628;22.684;2022-09-09T04:20:16;95256.50;;;18.76;100.00
11184;BME280;5648;43.628;22.684;2022-09-09T04:22:41;95254.47;;;18.88;100.00
11184;BME280;5648;43.628;22.684;2022-09-09T04:25:07;95255.03;;;18.95;100.00
11184;BME280;5648;43.628;22.684;2022-09-09T04:27:33;95263.72;;;19.07;100.00
11184;BME280;5648;43.628;22.684;2022-09-09T04:29:58;95265.59;;;19.07;100.00
11184;BME280;5648;43.628;22.684;2022-09-09T04:32:24;95266.94;;;19.09;100.00
11184;BME280;5648;43.628;22.684;2022-09-09T04:34:52;95263.81;;;19.17;100.00
11184;BME280;5648;43.628;22.684;2022-09-09T04:37:18;95261.69;;;19.24;100.00
11184;BME280;5648;43.628;22.684;2022-09-09T04:39:43;95258.22;;;19.24;100.00
11184;BME280;5648;43.628;22.684;2022-09-09T04:42:10;95253.66;;;19.24;100.00
11184;BME280;5648;43.628;22.684;2022-09-09T04:44:36;95244.28;;;19.27;100.00
11184;BME280;5648;43.628;22.684;2022-09-09T04:47:02;95249.47;;;19.39;100.00
11184;BME280;5648;43.628;22.684;2022-09-09T04:49:27;95261.78;;;19.40;100.00
11184;BME280;5648;43.628;22.684;2022-09-09T04:51:53;95252.22;;;19.49;100.00
11184;BME280;5648;43.628;22.684;2022-09-09T04:54:18;95267.84;;;19.57;100.00
11184;BME280;5648;43.628;22.684;2022-09-09T04:56:44;95274.75;;;19.53;100.00
11184;BME280;5648;43.628;22.684;2022-09-09T04:59:09;95278.59;;;19.57;100.00
11184;BME280;5648;43.628;22.684;2022-09-09T05:01:35;95273.41;;;19.50;100.00
11184;BME280;5648;43.628;22.684;2022-09-09T05:04:02;95274.66;;;19.75;100.00
11184;BME280;5648;43.628;22.684;2022-09-09T05:06:28;95269.50;;;19.68;100.00
11184;BME280;5648;43.628;22.684;2022-09-09T05:08:56;95289.69;;;19.81;100.00
11184;BME280;5648;43.628;22.684;2022-09-09T05:11:31;95297.78;;;19.86;100.00
11184;BME280;5648;43.628;22.684;2022-09-09T05:13:57;95283.56;;;19.91;100.00
11184;BME280;5648;43.628;22.684;2022-09-09T05:16:23;95281.22;;;20.09;100.00
11184;BME280;5648;43.628;22.684;2022-09-09T05:18:49;95280.44;;;20.09;100.00
11184;BME280;5648;43.628;22.684;2022-09-09T05:21:17;95276.72;;;20.20;100.00
11184;BME280;5648;43.628;22.684;2022-09-09T05:23:44;95288.53;;;20.24;100.00
11184;BME280;5648;43.628;22.684;2022-09-09T05:26:13;95278.44;;;20.41;100.00
11184;BME280;5648;43.628;22.684;2022-09-09T05:28:39;95267.97;;;20.50;100.00
11184;BME280;5648;43.628;22.684;2022-09-09T05:31:07;95270.72;;;20.70;100.00
11184;BME280;5648;43.628;22.684;2022-09-09T05:33:34;95263.72;;;20.80;100.00
11184;BME280;5648;43.628;22.684;2022-09-09T05:36:05;95265.63;;;20.84;100.00
11184;BME280;5648;43.628;22.684;2022-09-09T05:38:32;95262.09;;;21.09;100.00
11184;BME280;5648;43.628;22.684;2022-09-09T05:40:58;95261.31;;;21.19;100.00
11184;BME280;5648;43.628;22.684;2022-09-09T05:43:25;95273.41;;;21.21;100.00
11184;BME280;5648;43.628;22.684;2022-09-09T05:46:09;95270.72;;;21.37;100.00
11184;BME280;5648;43.628;22.684;2022-09-09T05:48:40;95266.16;;;21.42;100.00
11184;BME280;5648;43.628;22.684;2022-09-09T05:51:10;95258.63;;;21.54;100.00
11184;BME280;5648;43.628;22.684;2022-09-09T05:53:41;95264.00;;;21.54;100.00
11184;BME280;5648;43.628;22.684;2022-09-09T05:56:09;95266.91;;;21.73;100.00
11184;BME280;5648;43.628;22.684;2022-09-09T05:58:39;95263.16;;;21.64;100.00
11184;BME280;5648;43.628;22.684;2022-09-09T06:01:14;95269.84;;;21.67;100.00
11184;BME280;5648;43.628;22.684;2022-09-09T06:03:41;95266.59;;;21.80;100.00
11184;BME280;5648;43.628;22.684;2022-09-09T06:06:10;95272.25;;;21.83;100.00
11184;BME280;5648;43.628;22.684;2022-09-09T06:08:38;95275.19;;;21.92;100.00
11184;BME280;5648;43.628;22.684;2022-09-09T06:11:07;95277.31;;;22.05;100.00
11184;BME280;5648;43.628;22.684;2022-09-09T06:13:34;95273.00;;;21.94;100.00
11184;BME280;5648;43.628;22.684;2022-09-09T06:16:00;95281.06;;;22.09;100.00
11184;BME280;5648;43.628;22.684;2022-09-09T06:18:26;95282.41;;;22.17;100.00
11184;BME280;5648;43.628;22.684;2022-09-09T06:21:04;95271.81;;;22.31;100.00
11184;BME280;5648;43.628;22.684;2022-09-09T06:23:30;95277.28;;;22.15;100.00
11184;BME280;5648;43.628;22.684;2022-09-09T06:26:07;95280.00;;;22.10;100.00
11184;BME280;5648;43.628;22.684;2022-09-09T06:28:35;95278.34;;;22.25;100.00
11184;BME280;5648;43.628;22.684;2022-09-09T06:31:07;95263.50;;;22.27;100.00
11184;BME280;5648;43.628;22.684;2022-09-09T06:33:35;95261.53;;;22.38;100.00
11184;BME280;5648;43.628;22.684;2022-09-09T06:36:02;95255.09;;;22.39;100.00
11184;BME280;5648;43.628;22.684;2022-09-09T06:38:29;95262.09;;;22.40;100.00
11184;BME280;5648;43.628;22.684;2022-09-09T06:40:57;95269.25;;;22.60;100.00
11184;BME280;5648;43.628;22.684;2022-09-09T06:43:24;95272.16;;;22.68;100.00
11184;BME280;5648;43.628;22.684;2022-09-09T06:45:58;95283.69;;;22.84;100.00
11184;BME280;5648;43.628;22.684;2022-09-09T06:48:24;95287.19;;;22.85;100.00
11184;BME280;5648;43.628;22.684;2022-09-09T06:51:16;95287.22;;;22.74;100.00
11184;BME280;5648;43.628;22.684;2022-09-09T06:53:44;95297.34;;;22.93;100.00
11184;BME280;5648;43.628;22.684;2022-09-09T06:58:40;95304.41;;;22.89;100.00
11184;BME280;5648;43.628;22.684;2022-09-09T07:01:11;95315.13;;;22.94;100.00
11184;BME280;5648;43.628;22.684;2022-09-09T07:03:38;95306.13;;;22.69;100.00
11184;BME280;5648;43.628;22.684;2022-09-09T07:06:05;95317.38;;;22.76;100.00
11184;BME280;5648;43.628;22.684;2022-09-09T07:08:31;95300.38;;;22.86;100.00
11184;BME280;5648;43.628;22.684;2022-09-09T07:11:07;95294.22;;;22.75;100.00
11184;BME280;5648;43.628;22.684;2022-09-09T07:13:34;95296.25;;;22.94;100.00
11184;BME280;5648;43.628;22.684;2022-09-09T07:16:07;95302.28;;;22.75;100.00
11184;BME280;5648;43.628;22.684;2022-09-09T07:18:34;95304.34;;;22.99;100.00
11184;BME280;5648;43.628;22.684;2022-09-09T07:21:01;95298.53;;;23.16;100.00
11184;BME280;5648;43.628;22.684;2022-09-09T07:23:28;95294.91;;;23.30;100.00
11184;BME280;5648;43.628;22.684;2022-09-09T07:25:53;95308.94;;;23.32;100.00
11184;BME280;5648;43.628;22.684;2022-09-09T07:28:22;95306.16;;;23.43;100.00
11184;BME280;5648;43.628;22.684;2022-09-09T07:30:56;95305.06;;;23.44;100.00
11184;BME280;5648;43.628;22.684;2022-09-09T07:33:22;95299.16;;;23.36;100.00
11184;BME280;5648;43.628;22.684;2022-09-09T07:35:48;95308.50;;;23.49;100.00
11184;BME280;5648;43.628;22.684;2022-09-09T07:38:14;95309.88;;;23.47;100.00
11184;BME280;5648;43.628;22.684;2022-09-09T07:40:40;95305.16;;;23.67;100.00
11184;BME280;5648;43.628;22.684;2022-09-09T07:43:06;95304.22;;;23.77;100.00
11184;BME280;5648;43.628;22.684;2022-09-09T07:45:33;95292.97;;;23.70;100.00
11184;BME280;5648;43.628;22.684;2022-09-09T07:47:59;95299.31;;;23.84;100.00
11184;BME280;5648;43.628;22.684;2022-09-09T07:50:25;95303.19;;;23.73;100.00
11184;BME280;5648;43.628;22.684;2022-09-09T07:52:51;95307.34;;;23.89;100.00
11184;BME280;5648;43.628;22.684;2022-09-09T07:55:19;95306.16;;;24.01;100.00
11184;BME280;5648;43.628;22.684;2022-09-09T07:57:45;95311.03;;;23.98;100.00
11184;BME280;5648;43.628;22.684;2022-09-09T08:00:13;95317.03;;;23.95;100.00
11184;BME280;5648;43.628;22.684;2022-09-09T08:02:40;95317.63;;;23.87;100.00
11184;BME280;5648;43.628;22.684;2022-09-09T08:05:06;95325.28;;;23.46;100.00
11184;BME280;5648;43.628;22.684;2022-09-09T08:07:32;95317.28;;;23.70;100.00
11184;BME280;5648;43.628;22.684;2022-09-09T08:09:57;95314.47;;;23.80;100.00
11184;BME280;5648;43.628;22.684;2022-09-09T08:12:23;95321.91;;;23.93;100.00
11184;BME280;5648;43.628;22.684;2022-09-09T08:14:48;95313.31;;;23.86;100.00
11184;BME280;5648;43.628;22.684;2022-09-09T08:17:14;95315.81;;;23.78;100.00
11184;BME280;5648;43.628;22.684;2022-09-09T08:19:40;95327.44;;;23.78;100.00
11184;BME280;5648;43.628;22.684;2022-09-09T08:22:06;95323.09;;;24.06;100.00
11184;BME280;5648;43.628;22.684;2022-09-09T08:24:33;95331.25;;;24.01;100.00
11184;BME280;5648;43.628;22.684;2022-09-09T08:26:58;95319.81;;;23.85;100.00
11184;BME280;5648;43.628;22.684;2022-09-09T08:29:24;95321.13;;;23.88;100.00
11184;BME280;5648;43.628;22.684;2022-09-09T08:31:55;95327.09;;;23.85;100.00
11184;BME280;5648;43.628;22.684;2022-09-09T08:34:23;95319.00;;;23.85;100.00
11184;BME280;5648;43.628;22.684;2022-09-09T08:36:50;95316.53;;;23.88;100.00
11184;BME280;5648;43.628;22.684;2022-09-09T08:39:17;95329.66;;;24.00;100.00
11184;BME280;5648;43.628;22.684;2022-09-09T08:45:01;95322.97;;;23.92;100.00
11184;BME280;5648;43.628;22.684;2022-09-09T08:47:55;95323.97;;;23.73;100.00
11184;BME280;5648;43.628;22.684;2022-09-09T08:50:28;95318.22;;;23.84;100.00
11184;BME280;5648;43.628;22.684;2022-09-09T08:55:53;95320.38;;;23.82;100.00
11184;BME280;5648;43.628;22.684;2022-09-09T08:58:31;95322.44;;;23.90;100.00
11184;BME280;5648;43.628;22.684;2022-09-09T09:03:53;95319.25;;;24.12;100.00
11184;BME280;5648;43.628;22.684;2022-09-09T09:11:54;95310.53;;;24.44;100.00
11184;BME280;5648;43.628;22.684;2022-09-09T09:14:22;95315.22;;;24.57;100.00
11184;BME280;5648;43.628;22.684;2022-09-09T09:19:23;95307.34;;;24.99;100.00
11184;BME280;5648;43.628;22.684;2022-09-09T09:21:57;95305.94;;;25.06;100.00
11184;BME280;5648;43.628;22.684;2022-09-09T09:27:07;95302.31;;;24.92;100.00
11184;BME280;5648;43.628;22.684;2022-09-09T09:29:38;95294.25;;;24.87;100.00
11184;BME280;5648;43.628;22.684;2022-09-09T09:32:07;95300.13;;;24.94;100.00
11184;BME280;5648;43.628;22.684;2022-09-09T09:34:35;95294.84;;;24.84;100.00
11184;BME280;5648;43.628;22.684;2022-09-09T09:37:01;95304.56;;;24.85;100.00
11184;BME280;5648;43.628;22.684;2022-09-09T09:39:29;95291.34;;;24.65;100.00
11184;BME280;5648;43.628;22.684;2022-09-09T09:41:55;95295.50;;;24.76;100.00
11184;BME280;5648;43.628;22.684;2022-09-09T09:44:24;95299.88;;;24.72;100.00
11184;BME280;5648;43.628;22.684;2022-09-09T09:46:50;95292.44;;;24.64;100.00
11184;BME280;5648;43.628;22.684;2022-09-09T09:49:16;95289.16;;;24.67;100.00
11184;BME280;5648;43.628;22.684;2022-09-09T09:51:42;95300.41;;;24.74;100.00
11184;BME280;5648;43.628;22.684;2022-09-09T09:54:21;95283.16;;;24.70;100.00
11184;BME280;5648;43.628;22.684;2022-09-09T09:56:48;95299.16;;;24.66;100.00
11184;BME280;5648;43.628;22.684;2022-09-09T10:01:54;95306.44;;;24.23;100.00
11184;BME280;5648;43.628;22.684;2022-09-09T10:04:31;95308.34;;;24.46;100.00
11184;BME280;5648;43.628;22.684;2022-09-09T10:06:58;95305.50;;;24.38;100.00
11184;BME280;5648;43.628;22.684;2022-09-09T10:09:34;95305.97;;;24.16;100.00
11184;BME280;5648;43.628;22.684;2022-09-09T10:12:22;95315.69;;;24.17;100.00
11184;BME280;5648;43.628;22.684;2022-09-09T10:22:35;95314.88;;;24.64;100.00
11184;BME280;5648;43.628;22.684;2022-09-09T10:33:36;95309.19;;;24.84;100.00
11184;BME280;5648;43.628;22.684;2022-09-09T10:36:22;95312.81;;;24.75;100.00
11184;BME280;5648;43.628;22.684;2022-09-09T10:39:06;95321.38;;;24.82;100.00
11184;BME280;5648;43.628;22.684;2022-09-09T10:44:32;95350.38;;;25.00;100.00
11184;BME280;5648;43.628;22.684;2022-09-09T10:55:27;95322.78;;;25.36;100.00
11184;BME280;5648;43.628;22.684;2022-09-09T10:57:58;95317.72;;;25.29;100.00
11184;BME280;5648;43.628;22.684;2022-09-09T11:00:35;95312.63;;;25.28;100.00
11184;BME280;5648;43.628;22.684;2022-09-09T11:03:04;95317.19;;;25.46;100.00
11184;BME280;5648;43.628;22.684;2022-09-09T11:05:42;95313.66;;;25.64;100.00
11184;BME280;5648;43.628;22.684;2022-09-09T11:08:11;95304.28;;;25.57;100.00
11184;BME280;5648;43.628;22.684;2022-09-09T11:18:38;95293.56;;;25.33;100.00
11184;BME280;5648;43.628;22.684;2022-09-09T11:21:09;95297.13;;;25.14;100.00
11184;BME280;5648;43.628;22.684;2022-09-09T11:23:43;95288.13;;;25.19;100.00
11184;BME280;5648;43.628;22.684;2022-09-09T11:26:15;95289.00;;;25.14;100.00
11184;BME280;5648;43.628;22.684;2022-09-09T11:37:35;95270.75;;;25.06;100.00
11184;BME280;5648;43.628;22.684;2022-09-09T11:42:23;95273.16;;;24.70;100.00
11184;BME280;5648;43.628;22.684;2022-09-09T11:44:49;95281.72;;;24.77;100.00
11184;BME280;5648;43.628;22.684;2022-09-09T11:47:35;95289.88;;;24.91;100.00
11184;BME280;5648;43.628;22.684;2022-09-09T11:50:28;95291.34;;;24.83;100.00
11184;BME280;5648;43.628;22.684;2022-09-09T11:55:39;95286.44;;;25.23;100.00
11184;BME280;5648;43.628;22.684;2022-09-09T11:58:24;95287.25;;;25.24;100.00
11184;BME280;5648;43.628;22.684;2022-09-09T12:00:50;95281.69;;;25.48;100.00
11184;BME280;5648;43.628;22.684;2022-09-09T12:03:48;95273.78;;;25.84;100.00
11184;BME280;5648;43.628;22.684;2022-09-09T12:06:31;95269.78;;;25.95;100.00
11184;BME280;5648;43.628;22.684;2022-09-09T12:09:10;95272.00;;;26.48;100.00
11184;BME280;5648;43.628;22.684;2022-09-09T12:11:41;95272.16;;;26.65;100.00
11184;BME280;5648;43.628;22.684;2022-09-09T12:14:23;95255.75;;;26.70;95.15
11184;BME280;5648;43.628;22.684;2022-09-09T12:17:18;95252.69;;;26.63;92.06
11184;BME280;5648;43.628;22.684;2022-09-09T12:19:44;95248.91;;;26.73;90.85
11184;BME280;5648;43.628;22.684;2022-09-09T12:28:24;95234.59;;;27.39;82.15
11184;BME280;5648;43.628;22.684;2022-09-09T12:37:02;95211.47;;;26.75;88.45
11184;BME280;5648;43.628;22.684;2022-09-09T12:39:34;95216.94;;;26.61;90.11
11184;BME280;5648;43.628;22.684;2022-09-09T12:42:00;95215.72;;;26.89;98.11
11184;BME280;5648;43.628;22.684;2022-09-09T12:44:29;95222.25;;;26.88;100.00
11184;BME280;5648;43.628;22.684;2022-09-09T12:46:56;95215.28;;;26.74;100.00
11184;BME280;5648;43.628;22.684;2022-09-09T12:49:37;95207.69;;;26.62;100.00
11184;BME280;5648;43.628;22.684;2022-09-09T12:52:17;95201.56;;;26.56;100.00
11184;BME280;5648;43.628;22.684;2022-09-09T12:54:45;95208.63;;;26.44;100.00
11184;BME280;5648;43.628;22.684;2022-09-09T12:57:13;95205.22;;;26.74;100.00
11184;BME280;5648;43.628;22.684;2022-09-09T12:59:41;95209.09;;;26.59;100.00
11184;BME280;5648;43.628;22.684;2022-09-09T13:02:26;95207.63;;;26.53;100.00
11184;BME280;5648;43.628;22.684;2022-09-09T13:04:53;95210.81;;;26.55;100.00
11184;BME280;5648;43.628;22.684;2022-09-09T13:07:21;95209.00;;;26.87;100.00
11184;BME280;5648;43.628;22.684;2022-09-09T13:09:48;95205.72;;;26.99;100.00
11184;BME280;5648;43.628;22.684;2022-09-09T13:12:23;95207.31;;;27.00;100.00
11184;BME280;5648;43.628;22.684;2022-09-09T13:14:53;95199.94;;;26.91;100.00
11184;BME280;5648;43.628;22.684;2022-09-09T13:17:25;95184.34;;;27.19;100.00
11184;BME280;5648;43.628;22.684;2022-09-09T13:19:54;95186.84;;;27.38;100.00
11184;BME280;5648;43.628;22.684;2022-09-09T13:22:37;95189.31;;;27.57;100.00
11184;BME280;5648;43.628;22.684;2022-09-09T13:27:34;95175.00;;;28.14;100.00
11184;BME280;5648;43.628;22.684;2022-09-09T13:30:54;95179.63;;;28.04;100.00
11184;BME280;5648;43.628;22.684;2022-09-09T13:35:56;95179.47;;;28.09;100.00
11184;BME280;5648;43.628;22.684;2022-09-09T13:38:22;95170.13;;;28.42;100.00
11184;BME280;5648;43.628;22.684;2022-09-09T13:41:03;95166.47;;;28.63;100.00
11184;BME280;5648;43.628;22.684;2022-09-09T13:43:50;95165.09;;;28.09;100.00
11184;BME280;5648;43.628;22.684;2022-09-09T13:46:36;95169.66;;;28.48;99.00
11184;BME280;5648;43.628;22.684;2022-09-09T13:51:42;95169.66;;;28.91;96.72
11184;BME280;5648;43.628;22.684;2022-09-09T13:54:13;95166.88;;;29.26;100.00
11184;BME280;5648;43.628;22.684;2022-09-09T13:56:40;95171.19;;;29.36;94.46
11184;BME280;5648;43.628;22.684;2022-09-09T13:59:15;95163.16;;;29.48;92.04
11184;BME280;5648;43.628;22.684;2022-09-09T14:01:42;95151.41;;;29.65;94.08
11184;BME280;5648;43.628;22.684;2022-09-09T14:04:08;95160.28;;;29.82;87.22
11184;BME280;5648;43.628;22.684;2022-09-09T14:06:37;95156.97;;;29.68;83.70
11184;BME280;5648;43.628;22.684;2022-09-09T14:09:10;95167.81;;;29.47;85.67
11184;BME280;5648;43.628;22.684;2022-09-09T14:11:40;95163.31;;;29.51;91.04
11184;BME280;5648;43.628;22.684;2022-09-09T14:14:05;95164.38;;;28.86;88.65
11184;BME280;5648;43.628;22.684;2022-09-09T14:16:31;95175.09;;;28.48;92.82
11184;BME280;5648;43.628;22.684;2022-09-09T14:18:56;95177.94;;;28.43;96.30
11184;BME280;5648;43.628;22.684;2022-09-09T14:21:23;95181.47;;;28.35;96.76
11184;BME280;5648;43.628;22.684;2022-09-09T14:23:49;95182.09;;;27.75;100.00
11184;BME280;5648;43.628;22.684;2022-09-09T14:26:14;95176.03;;;27.87;100.00
11184;BME280;5648;43.628;22.684;2022-09-09T14:28:40;95178.16;;;27.59;100.00
11184;BME280;5648;43.628;22.684;2022-09-09T14:31:06;95180.06;;;27.27;100.00
11184;BME280;5648;43.628;22.684;2022-09-09T14:33:32;95184.69;;;27.49;100.00
11184;BME280;5648;43.628;22.684;2022-09-09T14:36:02;95182.53;;;27.37;100.00
11184;BME280;5648;43.628;22.684;2022-09-09T14:38:33;95184.00;;;27.43;100.00
11184;BME280;5648;43.628;22.684;2022-09-09T14:41:00;95195.56;;;27.58;100.00
11184;BME280;5648;43.628;22.684;2022-09-09T14:43:28;95181.78;;;27.45;100.00
11184;BME280;5648;43.628;22.684;2022-09-09T14:45:55;95179.91;;;27.24;100.00
11184;BME280;5648;43.628;22.684;2022-09-09T14:48:21;95183.03;;;27.39;100.00
11184;BME280;5648;43.628;22.684;2022-09-09T14:50:46;95182.44;;;27.20;100.00
11184;BME280;5648;43.628;22.684;2022-09-09T14:53:12;95185.06;;;27.03;100.00
11184;BME280;5648;43.628;22.684;2022-09-09T14:55:37;95196.53;;;26.86;100.00
11184;BME280;5648;43.628;22.684;2022-09-09T14:58:04;95187.84;;;26.98;100.00
11184;BME280;5648;43.628;22.684;2022-09-09T15:00:31;95183.19;;;27.12;100.00
11184;BME280;5648;43.628;22.684;2022-09-09T15:02:56;95179.41;;;26.99;100.00
11184;BME280;5648;43.628;22.684;2022-09-09T15:05:22;95170.16;;;27.00;100.00
11184;BME280;5648;43.628;22.684;2022-09-09T15:07:49;95181.06;;;26.86;100.00
11184;BME280;5648;43.628;22.684;2022-09-09T15:10:16;95184.16;;;27.16;100.00